createdAt,value
2023-04-09T00:01:10.551Z,30.33
2023-04-09T00:06:16.117Z,26.33
2023-04-09T00:11:21.075Z,30.25
2023-04-09T00:16:26.653Z,38.33
2023-04-09T00:21:32.451Z,33.00
2023-04-09T00:26:37.526Z,42.00
2023-04-09T00:36:46.927Z,45.00
2023-04-09T00:41:51.695Z,37.33
2023-04-09T00:46:58.427Z,39.00
2023-04-09T00:52:04.349Z,37.00
2023-04-09T00:57:09.289Z,42.75
2023-04-09T01:02:14.643Z,42.00
2023-04-09T01:07:36.261Z,42.00
2023-04-09T01:18:07.617Z,41.75
2023-04-09T01:23:18.441Z,42.00
2023-04-09T01:28:45.105Z,41.00
2023-04-09T01:33:50.226Z,40.33
2023-04-09T01:38:57.671Z,45.25
2023-04-09T01:44:05.196Z,40.50
2023-04-09T01:49:11.151Z,41.75
2023-04-09T01:54:17.435Z,45.00
2023-04-09T01:59:22.320Z,44.00
2023-04-09T02:04:31.942Z,36.33
2023-04-09T02:09:41.065Z,45.00
2023-04-09T02:14:48.421Z,41.25
2023-04-09T02:19:54.053Z,41.25
2023-04-09T02:24:58.940Z,39.75
2023-04-09T02:30:04.207Z,42.50
2023-04-09T02:35:09.401Z,41.00
2023-04-09T02:40:14.667Z,42.00
2023-04-09T02:45:19.552Z,40.50
2023-04-09T02:50:24.777Z,42.25
2023-04-09T02:55:30.970Z,46.25
2023-04-09T03:00:35.964Z,40.75
2023-04-09T03:05:40.764Z,41.00
2023-04-09T03:10:45.554Z,50.75
2023-04-09T03:15:57.532Z,45.75
2023-04-09T03:21:06.180Z,50.00
2023-04-09T03:26:13.210Z,45.00
2023-04-09T03:31:24.843Z,45.25
2023-04-09T03:36:29.563Z,40.00
2023-04-09T03:41:39.679Z,39.50
2023-04-09T03:46:49.022Z,37.00
2023-04-09T03:51:56.565Z,44.50
2023-04-09T03:57:05.846Z,44.75
2023-04-09T04:02:15.650Z,43.67
2023-04-09T04:07:26.334Z,45.00
2023-04-09T04:12:37.433Z,42.00
2023-04-09T04:17:47.178Z,40.00
2023-04-09T04:28:29.626Z,42.00
2023-04-09T04:33:35.323Z,36.00
2023-04-09T04:38:43.131Z,37.00
2023-04-09T04:43:56.921Z,39.00
2023-04-09T04:49:04.007Z,47.00
2023-04-09T04:54:12.623Z,45.00
2023-04-09T04:59:25.233Z,40.50
2023-04-09T05:04:37.572Z,45.00
2023-04-09T05:09:46.489Z,42.00
2023-04-09T05:14:51.638Z,42.00
2023-04-09T05:19:59.144Z,38.50
2023-04-09T05:25:12.956Z,42.25
2023-04-09T05:30:20.506Z,47.50
2023-04-09T05:35:28.076Z,48.00
2023-04-09T05:40:34.494Z,45.00
2023-04-09T05:45:43.586Z,41.00
2023-04-09T05:50:55.638Z,44.25
2023-04-09T05:56:04.398Z,46.50
2023-04-09T06:01:28.422Z,44.00
2023-04-09T06:06:34.662Z,42.00
2023-04-09T06:11:39.835Z,47.00
2023-04-09T06:16:44.844Z,46.00
2023-04-09T06:21:50.350Z,44.00
2023-04-09T06:26:55.375Z,43.67
2023-04-09T06:37:05.187Z,45.33
2023-04-09T06:42:11.192Z,46.75
2023-04-09T06:47:28.388Z,46.25
2023-04-09T06:52:34.823Z,47.67
2023-04-09T06:57:40.513Z,49.00
2023-04-09T07:02:46.530Z,48.00
2023-04-09T07:07:51.993Z,50.00
2023-04-09T07:12:57.434Z,48.00
2023-04-09T07:18:02.528Z,48.67
2023-04-09T07:28:12.899Z,50.00
2023-04-09T07:33:21.056Z,49.00
2023-04-09T07:38:26.058Z,48.00
2023-04-09T07:43:30.948Z,48.75
2023-04-09T07:48:36.039Z,47.00
2023-04-09T07:53:40.927Z,47.75
2023-04-09T07:58:50.784Z,46.75
2023-04-09T08:09:01.822Z,50.00
2023-04-09T08:14:08.697Z,46.00
2023-04-09T08:19:16.099Z,48.50
2023-04-09T08:24:21.547Z,50.00
2023-04-09T08:29:26.780Z,42.00
2023-04-09T08:34:31.599Z,42.75
2023-04-09T08:39:37.822Z,47.50
2023-04-09T08:44:42.854Z,45.75
2023-04-09T08:49:49.821Z,48.25
2023-04-09T08:54:55.198Z,47.33
2023-04-09T09:00:00.674Z,43.25
2023-04-09T09:05:05.661Z,47.00
2023-04-09T09:10:11.242Z,38.00
2023-04-09T09:15:32.346Z,48.50
2023-04-09T09:20:41.964Z,49.00
2023-04-09T09:25:47.640Z,50.00
2023-04-09T09:30:52.997Z,48.00
2023-04-09T09:35:59.158Z,48.00
2023-04-09T09:41:19.331Z,47.00
2023-04-09T09:46:27.617Z,46.75
2023-04-09T09:51:35.471Z,50.00
2023-04-09T09:56:44.153Z,50.00
2023-04-09T10:01:53.079Z,49.67
2023-04-09T10:12:10.626Z,49.33
2023-04-09T10:17:15.962Z,50.00
2023-04-09T10:22:28.023Z,47.75
2023-04-09T10:27:32.999Z,50.00
2023-04-09T10:32:38.418Z,50.00
2023-04-09T10:37:52.100Z,50.00
2023-04-09T10:43:01.973Z,50.00
2023-04-09T10:48:07.625Z,50.00
2023-04-09T10:53:25.445Z,48.00
2023-04-09T10:58:30.733Z,49.67
2023-04-09T11:03:49.969Z,50.00
2023-04-09T11:08:55.073Z,50.00
2023-04-09T11:14:03.149Z,50.00
2023-04-09T11:19:11.161Z,50.00
2023-04-09T11:24:17.377Z,53.67
2023-04-09T11:29:25.128Z,50.00
2023-04-09T11:34:33.887Z,50.00
2023-04-09T11:39:46.088Z,56.75
2023-04-09T11:44:52.049Z,50.33
2023-04-09T11:49:57.742Z,50.00
2023-04-09T11:55:12.769Z,48.33
2023-04-09T12:00:19.488Z,50.00
2023-04-09T12:05:32.701Z,50.00
2023-04-09T12:10:40.314Z,47.67
2023-04-09T12:15:47.935Z,47.00
2023-04-09T12:20:56.378Z,48.00
2023-04-09T12:26:04.760Z,50.50
2023-04-09T12:31:13.336Z,62.25
2023-04-09T12:36:18.390Z,50.00
2023-04-09T12:41:23.909Z,50.75
2023-04-09T12:46:29.804Z,49.67
2023-04-09T12:51:34.673Z,48.00
2023-04-09T12:56:40.946Z,50.00
2023-04-09T13:01:46.240Z,50.00
2023-04-09T13:06:51.509Z,50.00
2023-04-09T13:12:00.209Z,50.00
2023-04-09T13:17:06.984Z,45.00
2023-04-09T13:22:13.070Z,48.75
2023-04-09T13:27:18.805Z,47.75
2023-04-09T13:37:32.244Z,46.33
2023-04-09T13:42:38.904Z,48.00
2023-04-09T13:47:44.410Z,49.00
2023-04-09T13:52:49.752Z,48.67
2023-04-09T13:57:55.988Z,50.00
2023-04-09T14:03:04.422Z,50.00
2023-04-09T14:08:11.106Z,50.67
2023-04-09T14:13:16.334Z,48.75
2023-04-09T14:18:23.044Z,48.67
2023-04-09T14:23:30.188Z,49.33
2023-04-09T14:28:35.282Z,50.00
2023-04-09T14:33:41.444Z,50.00
2023-04-09T14:38:47.042Z,49.00
2023-04-09T14:43:52.761Z,50.00
2023-04-09T14:48:58.076Z,49.33
2023-04-09T14:54:06.930Z,49.00
2023-04-09T14:59:15.252Z,48.25
2023-04-09T15:04:23.693Z,46.00
2023-04-09T15:09:29.190Z,43.33
2023-04-09T15:14:35.089Z,48.00
2023-04-09T15:19:40.860Z,47.75
2023-04-09T15:24:46.388Z,50.00
2023-04-09T15:29:53.554Z,44.33
2023-04-09T15:34:59.422Z,45.67
2023-04-09T15:40:05.920Z,42.25
2023-04-09T15:45:11.662Z,44.75
2023-04-09T15:50:18.349Z,50.00
2023-04-09T15:55:28.002Z,47.00
2023-04-09T16:00:33.594Z,50.00
2023-04-09T16:05:41.152Z,48.00
2023-04-09T16:10:46.574Z,49.67
2023-04-09T16:15:52.776Z,47.75
2023-04-09T16:20:59.400Z,45.00
2023-04-09T16:26:05.474Z,42.75
2023-04-09T16:31:12.029Z,49.00
2023-04-09T16:36:17.798Z,46.50
2023-04-09T16:41:23.114Z,42.00
2023-04-09T16:46:28.357Z,43.00
2023-04-09T16:51:33.848Z,44.25
2023-04-09T16:56:39.342Z,42.00
2023-04-09T17:01:44.959Z,48.75
2023-04-09T17:06:52.344Z,48.25
2023-04-09T17:11:59.341Z,46.00
2023-04-09T17:17:04.401Z,48.00
2023-04-09T17:22:12.771Z,48.00
2023-04-09T17:27:17.961Z,47.00
2023-04-09T17:32:23.117Z,40.50
2023-04-09T17:37:30.334Z,45.00
2023-04-09T17:42:35.120Z,45.00
2023-04-09T17:47:43.253Z,42.00
2023-04-09T17:52:48.868Z,43.00
2023-04-09T18:02:59.082Z,42.00
2023-04-09T18:08:04.434Z,46.00
2023-04-09T18:13:09.229Z,45.25
2023-04-09T18:18:14.037Z,44.00
2023-04-09T18:23:19.092Z,47.50
2023-04-09T18:28:23.963Z,49.50
2023-04-09T18:33:28.933Z,46.67
2023-04-09T18:38:33.935Z,42.00
2023-04-09T18:43:38.922Z,50.00
2023-04-09T18:48:48.307Z,42.33
2023-04-09T18:53:55.866Z,47.00
2023-04-09T18:59:00.832Z,48.25
2023-04-09T19:04:05.906Z,46.33
2023-04-09T19:14:15.963Z,40.00
2023-04-09T19:19:20.914Z,49.00
2023-04-09T19:24:27.442Z,48.00
2023-04-09T19:29:32.625Z,50.00
2023-04-09T19:34:37.705Z,46.00
2023-04-09T19:39:42.954Z,41.00
2023-04-09T19:44:47.950Z,47.67
2023-04-09T19:49:52.908Z,48.75
2023-04-09T19:54:59.070Z,49.75
2023-04-09T20:00:04.156Z,49.50
2023-04-09T20:05:15.716Z,49.00
2023-04-09T20:10:21.869Z,49.50
2023-04-09T20:15:27.536Z,48.00
2023-04-09T20:20:32.947Z,50.00
2023-04-09T20:25:38.140Z,50.00
2023-04-09T20:30:44.166Z,47.25
2023-04-09T20:35:49.483Z,49.75
2023-04-09T20:40:55.463Z,48.50
2023-04-09T20:46:01.042Z,46.67
2023-04-09T20:51:12.064Z,48.00
2023-04-09T20:56:18.879Z,43.00
2023-04-09T21:01:25.362Z,48.00
2023-04-09T21:06:30.376Z,48.00
2023-04-09T21:11:35.397Z,50.00
2023-04-09T21:16:40.200Z,46.50
2023-04-09T21:21:45.301Z,48.00
2023-04-09T21:31:57.169Z,48.75
2023-04-09T21:37:05.625Z,50.00
2023-04-09T21:42:10.596Z,49.00
2023-04-09T21:47:15.595Z,50.00
2023-04-09T21:52:20.544Z,46.25
2023-04-09T21:57:25.692Z,49.75
2023-04-09T22:02:31.498Z,50.00
2023-04-09T22:07:38.429Z,50.00
2023-04-09T22:12:44.526Z,48.75
2023-04-09T22:17:49.619Z,49.00
2023-04-09T22:22:56.314Z,48.33
2023-04-09T22:28:01.232Z,52.50
2023-04-09T22:33:06.189Z,50.00
2023-04-09T22:38:11.496Z,42.33
2023-04-09T22:43:16.770Z,49.33
2023-04-09T22:48:23.232Z,45.67
2023-04-09T22:53:28.289Z,49.25
2023-04-09T22:58:34.276Z,50.33
2023-04-09T23:08:43.463Z,49.00
2023-04-09T23:13:48.661Z,58.75
2023-04-09T23:18:54.828Z,50.00
2023-04-09T23:23:59.938Z,48.50
2023-04-09T23:29:05.958Z,50.00
2023-04-09T23:34:11.970Z,50.75
2023-04-09T23:39:17.303Z,53.00
2023-04-09T23:44:22.108Z,48.75
2023-04-09T23:49:29.863Z,50.00
2023-04-09T23:54:34.705Z,58.75
2023-04-09T23:59:39.592Z,48.00
